createdAt,value
2018-09-30T00:00:29.457Z,7.23
2018-09-30T00:02:57.541Z,7.10
2018-09-30T00:05:25.761Z,10.30
2018-09-30T00:07:53.868Z,6.03
2018-09-30T00:10:22.316Z,10.47
2018-09-30T00:12:50.475Z,6.03
2018-09-30T00:15:18.597Z,6.90
2018-09-30T00:17:46.854Z,7.80
2018-09-30T00:20:15.042Z,6.03
2018-09-30T00:22:43.413Z,6.60
2018-09-30T00:25:17.092Z,8.60
2018-09-30T00:27:45.233Z,6.33
2018-09-30T00:30:13.305Z,7.10
2018-09-30T00:32:41.460Z,11.33
2018-09-30T00:35:09.916Z,6.30
2018-09-30T00:37:37.991Z,8.37
2018-09-30T00:40:06.102Z,5.30
2018-09-30T00:42:34.393Z,9.03
2018-09-30T00:45:02.532Z,8.20
2018-09-30T00:47:30.629Z,8.23
2018-09-30T00:49:59.042Z,6.30
2018-09-30T00:52:27.157Z,7.17
2018-09-30T00:54:55.304Z,4.90
2018-09-30T00:57:23.392Z,7.30
2018-09-30T00:59:51.473Z,7.00
2018-09-30T01:02:19.753Z,8.00
2018-09-30T01:04:47.812Z,7.60
2018-09-30T01:07:15.927Z,6.50
2018-09-30T01:09:43.999Z,7.97
2018-09-30T01:12:12.250Z,6.03
2018-09-30T01:14:40.340Z,5.80
2018-09-30T01:17:08.472Z,5.90
2018-09-30T01:19:36.741Z,4.40
2018-09-30T01:22:04.828Z,5.70
2018-09-30T01:24:32.954Z,6.37
2018-09-30T01:27:01.017Z,6.97
2018-09-30T01:29:29.137Z,5.40
2018-09-30T01:31:57.265Z,4.90
2018-09-30T01:34:25.320Z,6.40
2018-09-30T01:36:53.464Z,4.60
2018-09-30T01:39:21.556Z,4.10
2018-09-30T01:41:49.653Z,4.70
2018-09-30T01:44:17.798Z,5.30
2018-09-30T01:46:45.980Z,5.33
2018-09-30T01:49:14.162Z,3.93
2018-09-30T01:51:42.257Z,6.40
2018-09-30T01:54:10.343Z,6.80
2018-09-30T01:56:38.480Z,5.20
2018-09-30T01:59:06.562Z,4.93
2018-09-30T02:01:34.750Z,6.83
2018-09-30T02:04:02.816Z,4.50
2018-09-30T02:06:30.958Z,4.40
2018-09-30T02:08:59.058Z,5.30
2018-09-30T02:11:27.125Z,6.13
2018-09-30T02:13:55.218Z,5.37
2018-09-30T02:16:23.299Z,4.87
2018-09-30T02:18:51.357Z,4.30
2018-09-30T02:21:19.448Z,6.60
2018-09-30T02:23:47.569Z,3.83
2018-09-30T02:26:15.697Z,6.63
2018-09-30T02:28:43.765Z,8.03
2018-09-30T02:31:11.841Z,11.40
2018-09-30T02:33:39.887Z,3.77
2018-09-30T02:36:08.049Z,5.60
2018-09-30T02:38:36.113Z,5.60
2018-09-30T02:41:04.301Z,7.07
2018-09-30T02:43:32.367Z,4.73
2018-09-30T02:46:00.448Z,4.30
2018-09-30T02:48:28.517Z,3.37
2018-09-30T02:50:56.605Z,8.43
2018-09-30T02:53:27.675Z,4.63
2018-09-30T02:55:55.732Z,5.70
2018-09-30T02:58:23.929Z,4.60
2018-09-30T03:00:51.999Z,9.70
2018-09-30T03:03:20.273Z,5.47
2018-09-30T03:05:48.333Z,5.53
2018-09-30T03:08:21.800Z,8.10
2018-09-30T03:10:49.881Z,4.50
2018-09-30T03:13:17.940Z,5.63
2018-09-30T03:15:46.153Z,4.63
2018-09-30T03:18:14.208Z,7.00
2018-09-30T03:20:42.518Z,4.20
2018-09-30T03:23:10.584Z,5.23
2018-09-30T03:25:38.655Z,6.03
2018-09-30T03:28:06.828Z,5.13
2018-09-30T03:30:35.026Z,4.27
2018-09-30T03:33:03.077Z,4.40
2018-09-30T03:35:31.273Z,3.20
2018-09-30T03:37:59.379Z,4.10
2018-09-30T03:40:27.497Z,4.40
2018-09-30T03:42:55.659Z,3.60
2018-09-30T03:45:23.713Z,4.13
2018-09-30T03:47:51.904Z,5.20
2018-09-30T03:50:20.104Z,7.80
2018-09-30T03:52:48.197Z,4.50
2018-09-30T03:55:16.352Z,7.33
2018-09-30T03:57:44.909Z,3.50
2018-09-30T04:00:13.269Z,7.13
2018-09-30T04:02:41.555Z,6.93
2018-09-30T04:05:09.824Z,4.43
2018-09-30T04:07:38.204Z,5.95
2018-09-30T04:10:06.480Z,4.50
2018-09-30T04:12:34.709Z,4.00
2018-09-30T04:15:02.843Z,4.83
2018-09-30T04:17:30.949Z,3.90
2018-09-30T04:19:59.733Z,4.57
2018-09-30T04:22:27.817Z,4.40
2018-09-30T04:24:55.888Z,5.67
2018-09-30T04:27:24.065Z,4.07
2018-09-30T04:29:52.190Z,3.80
2018-09-30T04:32:20.577Z,4.75
2018-09-30T04:34:48.659Z,4.43
2018-09-30T04:37:16.930Z,4.47
2018-09-30T04:39:45.017Z,5.57
2018-09-30T04:42:13.096Z,3.90
2018-09-30T04:44:41.301Z,4.93
2018-09-30T04:47:09.532Z,5.30
2018-09-30T04:49:37.596Z,5.33
2018-09-30T04:52:06.340Z,4.90
2018-09-30T04:54:34.460Z,5.00
2018-09-30T04:57:02.685Z,7.50
2018-09-30T04:59:30.826Z,3.80
2018-09-30T05:01:58.904Z,4.37
2018-09-30T05:04:27.465Z,7.55
2018-09-30T05:06:55.582Z,6.90
2018-09-30T05:09:23.701Z,15.50
2018-09-30T05:11:51.913Z,5.43
2018-09-30T05:14:20.397Z,6.90
2018-09-30T05:16:48.549Z,5.40
2018-09-30T05:19:16.641Z,5.07
2018-09-30T05:21:44.995Z,6.80
2018-09-30T05:24:13.348Z,5.55
2018-09-30T05:26:41.684Z,5.05
2018-09-30T05:29:10.055Z,6.72
2018-09-30T05:31:38.385Z,4.67
2018-09-30T05:34:06.872Z,3.77
2018-09-30T05:36:35.201Z,4.20
2018-09-30T05:39:04.437Z,4.42
2018-09-30T05:41:32.811Z,4.33
2018-09-30T05:44:00.876Z,4.40
2018-09-30T05:46:28.950Z,7.03
2018-09-30T05:48:57.134Z,6.97
2018-09-30T05:51:25.396Z,4.67
2018-09-30T05:53:53.535Z,5.07
2018-09-30T05:56:21.924Z,5.25
2018-09-30T05:58:50.272Z,4.25
2018-09-30T06:01:18.613Z,9.58
2018-09-30T06:03:46.734Z,5.07
2018-09-30T06:06:15.273Z,5.40
2018-09-30T06:08:43.364Z,6.10
2018-09-30T06:11:11.525Z,5.90
2018-09-30T06:13:39.633Z,6.00
2018-09-30T06:16:07.941Z,5.40
2018-09-30T06:18:36.169Z,6.07
2018-09-30T06:21:04.232Z,5.53
2018-09-30T06:23:32.557Z,5.60
2018-09-30T06:26:00.864Z,6.80
2018-09-30T06:28:29.029Z,6.07
2018-09-30T06:30:57.128Z,9.23
2018-09-30T06:33:25.320Z,5.50
2018-09-30T06:35:53.459Z,5.23
2018-09-30T06:38:21.615Z,7.80
2018-09-30T06:40:49.972Z,9.03
2018-09-30T06:43:18.057Z,6.97
2018-09-30T06:45:46.394Z,6.47
2018-09-30T06:48:19.540Z,5.80
2018-09-30T06:50:47.737Z,7.17
2018-09-30T06:53:15.993Z,9.73
2018-09-30T06:55:45.485Z,6.23
2018-09-30T06:58:13.690Z,11.60
2018-09-30T07:00:41.849Z,7.03
2018-09-30T07:03:09.936Z,10.27
2018-09-30T07:05:38.017Z,8.57
2018-09-30T07:08:06.192Z,6.50
2018-09-30T07:10:34.392Z,7.13
2018-09-30T07:13:02.497Z,6.90
2018-09-30T07:15:30.808Z,9.93
2018-09-30T07:17:59.036Z,11.80
2018-09-30T07:20:27.104Z,8.10
2018-09-30T07:22:55.229Z,7.87
2018-09-30T07:25:23.398Z,8.33
2018-09-30T07:27:51.573Z,8.07
2018-09-30T07:30:19.661Z,7.90
2018-09-30T07:32:47.927Z,12.17
2018-09-30T07:35:16.613Z,8.30
2018-09-30T07:37:44.712Z,9.10
2018-09-30T07:40:12.906Z,8.37
2018-09-30T07:42:41.032Z,10.10
2018-09-30T07:45:09.221Z,11.70
2018-09-30T07:47:37.352Z,8.90
2018-09-30T07:50:05.473Z,9.43
2018-09-30T07:52:33.653Z,7.70
2018-09-30T07:55:01.941Z,10.60
2018-09-30T07:57:30.218Z,7.53
2018-09-30T07:59:58.292Z,9.63
2018-09-30T08:02:26.488Z,8.23
2018-09-30T08:04:54.750Z,10.70
2018-09-30T08:07:22.957Z,8.83
2018-09-30T08:09:51.380Z,9.23
2018-09-30T08:12:19.466Z,15.53
2018-09-30T08:14:47.533Z,8.73
2018-09-30T08:17:15.591Z,10.53
2018-09-30T08:19:43.683Z,11.47
2018-09-30T08:22:11.852Z,10.97
2018-09-30T08:24:39.933Z,9.57
2018-09-30T08:27:08.161Z,12.10
2018-09-30T08:29:36.276Z,11.83
2018-09-30T08:32:04.374Z,8.43
2018-09-30T08:34:32.505Z,9.43
2018-09-30T08:37:01.698Z,9.83
2018-09-30T08:39:29.914Z,8.80
2018-09-30T08:41:58.329Z,13.20
2018-09-30T08:44:26.544Z,9.17
2018-09-30T08:46:54.753Z,9.20
2018-09-30T08:49:22.967Z,10.03
2018-09-30T08:51:51.198Z,8.63
2018-09-30T08:54:19.336Z,10.17
2018-09-30T08:56:47.469Z,10.30
2018-09-30T08:59:15.604Z,7.43
2018-09-30T09:01:43.774Z,8.20
2018-09-30T09:04:11.836Z,11.00
2018-09-30T09:06:41.003Z,11.00
2018-09-30T09:09:10.033Z,9.40
2018-09-30T09:11:38.185Z,10.13
2018-09-30T09:14:06.656Z,10.53
2018-09-30T09:16:34.897Z,9.30
2018-09-30T09:19:02.956Z,19.00
2018-09-30T09:21:31.080Z,10.23
2018-09-30T09:23:59.164Z,8.33
2018-09-30T09:26:27.282Z,8.40
2018-09-30T09:28:55.376Z,8.93
2018-09-30T09:31:23.442Z,10.30
2018-09-30T09:33:51.615Z,8.30
2018-09-30T09:36:19.740Z,7.83
2018-09-30T09:38:47.844Z,8.87
2018-09-30T09:41:15.957Z,7.20
2018-09-30T09:43:44.105Z,7.37
2018-09-30T09:46:12.316Z,12.47
2018-09-30T09:48:40.413Z,8.40
2018-09-30T09:51:08.578Z,7.83
2018-09-30T09:53:36.909Z,9.63
2018-09-30T09:56:05.038Z,10.33
2018-09-30T09:58:33.162Z,10.33
2018-09-30T10:01:05.633Z,9.30
2018-09-30T10:03:33.925Z,9.03
2018-09-30T10:06:02.112Z,7.90
2018-09-30T10:08:30.187Z,8.63
2018-09-30T10:10:58.314Z,8.07
2018-09-30T10:13:26.601Z,7.83
2018-09-30T10:15:55.095Z,7.37
2018-09-30T10:18:23.218Z,7.60
2018-09-30T10:20:51.357Z,12.37
2018-09-30T10:23:19.544Z,9.93
2018-09-30T10:25:47.769Z,8.40
2018-09-30T10:28:15.924Z,8.87
2018-09-30T10:30:44.074Z,8.80
2018-09-30T10:33:12.157Z,15.13
2018-09-30T10:35:40.273Z,9.23
2018-09-30T10:38:08.364Z,12.37
2018-09-30T10:40:36.524Z,9.17
2018-09-30T10:43:04.614Z,8.03
2018-09-30T10:45:32.828Z,9.47
2018-09-30T10:48:01.124Z,7.50
2018-09-30T10:50:29.213Z,11.13
2018-09-30T10:52:57.365Z,9.23
2018-09-30T10:55:25.549Z,7.87
2018-09-30T10:57:53.793Z,8.60
2018-09-30T11:00:22.016Z,8.67
2018-09-30T11:02:50.227Z,9.07
2018-09-30T11:05:18.428Z,7.60
2018-09-30T11:07:46.601Z,9.00
2018-09-30T11:10:14.880Z,10.13
2018-09-30T11:12:43.118Z,9.73
2018-09-30T11:15:11.216Z,9.23
2018-09-30T11:17:39.302Z,7.63
2018-09-30T11:20:07.444Z,8.57
2018-09-30T11:22:35.609Z,8.80
2018-09-30T11:25:03.949Z,7.40
2018-09-30T11:27:32.352Z,7.90
2018-09-30T11:30:00.448Z,8.43
2018-09-30T11:32:28.623Z,8.37
2018-09-30T11:34:56.729Z,9.87
2018-09-30T11:37:25.879Z,10.33
2018-09-30T11:39:54.048Z,10.50
2018-09-30T11:42:22.213Z,9.20
2018-09-30T11:44:52.175Z,11.50
2018-09-30T11:47:20.388Z,10.30
2018-09-30T11:49:50.358Z,6.47
2018-09-30T11:52:18.942Z,10.53
2018-09-30T11:54:49.626Z,6.40
2018-09-30T11:57:18.936Z,7.23
2018-09-30T11:59:47.034Z,7.00
2018-09-30T12:02:15.330Z,12.37
2018-09-30T12:04:43.683Z,7.47
2018-09-30T12:07:11.845Z,5.80
2018-09-30T12:09:39.972Z,10.23
2018-09-30T12:12:08.136Z,9.20
2018-09-30T12:14:36.257Z,9.20
2018-09-30T12:17:04.445Z,8.50
2018-09-30T12:19:32.668Z,7.10
2018-09-30T12:22:00.925Z,6.17
2018-09-30T12:24:29.025Z,8.83
2018-09-30T12:26:57.116Z,6.90
2018-09-30T12:29:25.306Z,7.07
2018-09-30T12:31:53.468Z,5.90
2018-09-30T12:34:21.671Z,5.20
2018-09-30T12:36:49.834Z,7.40
2018-09-30T12:39:17.967Z,8.43
2018-09-30T12:41:46.340Z,7.50
2018-09-30T12:44:14.542Z,6.60
2018-09-30T12:46:42.617Z,5.93
2018-09-30T12:49:10.800Z,6.17
2018-09-30T12:51:39.059Z,7.87
2018-09-30T12:54:07.237Z,10.20
2018-09-30T12:56:35.389Z,8.40
2018-09-30T12:59:03.765Z,6.57
2018-09-30T13:01:31.863Z,7.67
2018-09-30T13:04:00.152Z,6.67
2018-09-30T13:06:28.430Z,6.30
2018-09-30T13:08:56.503Z,6.10
2018-09-30T13:11:24.602Z,8.43
2018-09-30T13:13:52.712Z,7.67
2018-09-30T13:16:21.116Z,7.67
2018-09-30T13:18:49.398Z,7.50
2018-09-30T13:21:17.550Z,7.90
2018-09-30T13:23:45.810Z,8.07
2018-09-30T13:26:14.444Z,6.83
2018-09-30T13:28:42.899Z,8.37
2018-09-30T13:31:11.017Z,9.23
2018-09-30T13:33:39.258Z,7.90
2018-09-30T13:36:08.097Z,6.67
2018-09-30T13:38:36.265Z,7.67
2018-09-30T13:41:04.683Z,7.77
2018-09-30T13:43:32.909Z,5.57
2018-09-30T13:46:01.238Z,7.93
2018-09-30T13:48:29.885Z,5.37
2018-09-30T13:50:59.740Z,5.37
2018-09-30T13:53:27.848Z,7.27
2018-09-30T13:55:55.946Z,7.30
2018-09-30T13:58:24.136Z,6.33
2018-09-30T14:00:52.394Z,6.23
2018-09-30T14:03:20.680Z,5.43
2018-09-30T14:05:48.837Z,5.43
2018-09-30T14:08:16.976Z,5.73
2018-09-30T14:10:45.124Z,7.47
2018-09-30T14:13:13.433Z,11.10
2018-09-30T14:15:41.935Z,7.60
2018-09-30T14:18:10.351Z,6.47
2018-09-30T14:20:39.487Z,8.63
2018-09-30T14:23:07.694Z,8.57
2018-09-30T14:25:36.151Z,7.60
2018-09-30T14:28:04.775Z,6.00
2018-09-30T14:30:32.875Z,5.00
2018-09-30T14:33:01.625Z,6.03
2018-09-30T14:35:29.773Z,5.80
2018-09-30T14:37:58.884Z,5.87
2018-09-30T14:40:27.058Z,5.90
2018-09-30T14:42:55.624Z,5.67
2018-09-30T14:45:23.815Z,9.60
2018-09-30T14:47:51.898Z,5.97
2018-09-30T14:50:20.107Z,5.70
2018-09-30T14:52:49.032Z,5.10
2018-09-30T14:55:17.264Z,5.73
2018-09-30T14:57:45.500Z,6.77
2018-09-30T15:00:13.707Z,7.50
2018-09-30T15:02:42.018Z,6.80
2018-09-30T15:05:10.125Z,8.03
2018-09-30T15:07:38.555Z,7.77
2018-09-30T15:10:06.762Z,9.00
2018-09-30T15:12:36.100Z,8.40
2018-09-30T15:15:05.327Z,7.00
2018-09-30T15:17:33.540Z,6.37
2018-09-30T15:20:01.844Z,5.83
2018-09-30T15:22:29.989Z,7.13
2018-09-30T15:24:58.305Z,5.93
2018-09-30T15:27:26.896Z,7.77
2018-09-30T15:29:55.388Z,10.13
2018-09-30T15:32:23.701Z,8.50
2018-09-30T15:34:51.880Z,7.23
2018-09-30T15:37:20.148Z,8.73
2018-09-30T15:39:48.300Z,9.73
2018-09-30T15:42:16.393Z,6.73
2018-09-30T15:44:44.552Z,6.17
2018-09-30T15:47:13.057Z,7.33
2018-09-30T15:49:41.267Z,6.83
2018-09-30T15:52:09.611Z,6.90
2018-09-30T15:54:37.785Z,6.30
2018-09-30T15:57:06.249Z,6.63
2018-09-30T15:59:34.958Z,6.80
2018-09-30T16:02:03.104Z,6.70
2018-09-30T16:04:31.244Z,7.10
2018-09-30T16:06:59.567Z,8.13
2018-09-30T16:09:27.824Z,7.47
2018-09-30T16:11:55.978Z,8.20
2018-09-30T16:14:24.504Z,12.80
2018-09-30T16:16:52.866Z,11.90
2018-09-30T16:19:21.103Z,9.17
2018-09-30T16:21:49.220Z,8.33
2018-09-30T16:24:17.440Z,9.07
2018-09-30T16:26:45.789Z,8.40
2018-09-30T16:29:13.940Z,7.40
2018-09-30T16:31:42.143Z,9.73
2018-09-30T16:34:10.274Z,19.63
2018-09-30T16:36:38.392Z,11.27
2018-09-30T16:39:07.373Z,9.90
2018-09-30T16:41:35.498Z,8.17
2018-09-30T16:44:03.658Z,8.77
2018-09-30T16:46:31.904Z,7.67
2018-09-30T16:49:00.297Z,10.47
2018-09-30T16:51:28.392Z,9.70
2018-09-30T16:53:56.531Z,10.17
2018-09-30T16:56:24.733Z,7.90
2018-09-30T16:58:52.863Z,9.47
2018-09-30T17:01:20.919Z,7.60
2018-09-30T17:03:49.106Z,8.10
2018-09-30T17:06:17.505Z,10.93
2018-09-30T17:08:45.646Z,9.87
2018-09-30T17:11:13.740Z,9.00
2018-09-30T17:13:42.014Z,6.73
2018-09-30T17:16:10.192Z,7.23
2018-09-30T17:18:38.498Z,9.97
2018-09-30T17:21:06.870Z,10.60
2018-09-30T17:23:35.137Z,6.60
2018-09-30T17:26:03.328Z,9.17
2018-09-30T17:28:31.791Z,10.40
2018-09-30T17:30:59.899Z,8.90
2018-09-30T17:33:28.230Z,9.50
2018-09-30T17:35:56.344Z,8.20
2018-09-30T17:38:24.377Z,7.70
2018-09-30T17:40:52.578Z,10.07
2018-09-30T17:43:20.824Z,14.07
2018-09-30T17:45:48.920Z,13.47
2018-09-30T17:48:17.004Z,15.90
2018-09-30T17:50:45.235Z,21.10
2018-09-30T17:53:13.628Z,19.87
2018-09-30T17:55:41.721Z,16.33
2018-09-30T17:58:09.946Z,15.33
2018-09-30T18:00:38.274Z,19.70
2018-09-30T18:03:06.877Z,15.60
2018-09-30T18:05:35.562Z,17.50
2018-09-30T18:08:04.690Z,15.93
2018-09-30T18:10:32.833Z,21.70
2018-09-30T18:13:00.937Z,17.20
2018-09-30T18:15:29.054Z,14.67
2018-09-30T18:17:57.262Z,15.00
2018-09-30T18:20:25.479Z,12.17
2018-09-30T18:22:53.815Z,11.87
2018-09-30T18:25:21.945Z,15.30
2018-09-30T18:27:50.045Z,11.13
2018-09-30T18:30:18.432Z,10.40
2018-09-30T18:32:46.552Z,8.97
2018-09-30T18:35:14.923Z,11.00
2018-09-30T18:37:43.503Z,10.67
2018-09-30T18:40:11.785Z,9.93
2018-09-30T18:42:40.593Z,9.83
2018-09-30T18:45:09.233Z,12.83
2018-09-30T18:47:37.873Z,11.43
2018-09-30T18:50:06.456Z,8.47
2018-09-30T18:52:35.142Z,9.93
2018-09-30T18:55:03.732Z,11.40
2018-09-30T18:57:32.315Z,12.60
2018-09-30T19:00:01.002Z,10.43
2018-09-30T19:02:29.587Z,9.03
2018-09-30T19:04:58.178Z,10.07
2018-09-30T19:07:26.755Z,8.83
2018-09-30T19:09:55.328Z,11.63
2018-09-30T19:12:23.927Z,8.90
2018-09-30T19:14:52.421Z,9.50
2018-09-30T19:17:20.895Z,10.30
2018-09-30T19:19:49.479Z,9.73
2018-09-30T19:22:17.957Z,12.90
2018-09-30T19:24:46.213Z,13.10
2018-09-30T19:27:14.347Z,12.30
2018-09-30T19:29:42.529Z,15.03
2018-09-30T19:32:10.689Z,14.00
2018-09-30T19:34:38.927Z,12.00
2018-09-30T19:37:07.165Z,12.13
2018-09-30T19:39:35.317Z,10.80
2018-09-30T19:42:03.517Z,22.20
2018-09-30T19:44:31.638Z,13.60
2018-09-30T19:46:59.894Z,14.00
2018-09-30T19:49:28.218Z,18.10
2018-09-30T19:51:56.502Z,16.07
2018-09-30T19:54:24.633Z,15.77
2018-09-30T19:56:52.765Z,13.60
2018-09-30T19:59:21.039Z,12.77
2018-09-30T20:01:49.250Z,12.80
2018-09-30T20:04:17.411Z,14.53
2018-09-30T20:06:45.573Z,14.03
2018-09-30T20:09:13.861Z,14.47
2018-09-30T20:11:42.097Z,18.27
2018-09-30T20:14:10.317Z,15.40
2018-09-30T20:16:38.493Z,15.50
2018-09-30T20:19:06.681Z,14.07
2018-09-30T20:21:34.800Z,17.67
2018-09-30T20:24:02.922Z,17.70
2018-09-30T20:26:31.185Z,15.70
2018-09-30T20:28:59.356Z,15.43
2018-09-30T20:31:27.487Z,13.40
2018-09-30T20:33:55.540Z,12.77
2018-09-30T20:36:23.701Z,13.73
2018-09-30T20:38:51.846Z,17.17
2018-09-30T20:41:19.958Z,17.93
2018-09-30T20:43:48.285Z,15.13
2018-09-30T20:46:16.513Z,13.97
2018-09-30T20:48:44.647Z,13.10
2018-09-30T20:51:15.310Z,16.03
2018-09-30T20:53:53.618Z,12.60
2018-09-30T20:56:21.748Z,15.27
2018-09-30T20:58:50.117Z,15.37
2018-09-30T21:01:18.513Z,16.40
2018-09-30T21:03:46.652Z,15.10
2018-09-30T21:06:19.406Z,13.30
2018-09-30T21:08:47.654Z,12.90
2018-09-30T21:11:15.757Z,16.33
2018-09-30T21:13:43.887Z,12.53
2018-09-30T21:16:12.490Z,15.80
2018-09-30T21:18:40.777Z,13.27
2018-09-30T21:21:09.071Z,18.23
2018-09-30T21:23:45.505Z,12.07
2018-09-30T21:26:14.001Z,14.40
2018-09-30T21:28:42.103Z,10.40
2018-09-30T21:31:10.221Z,13.77
2018-09-30T21:33:38.402Z,13.43
2018-09-30T21:36:06.527Z,10.23
2018-09-30T21:38:39.985Z,11.17
2018-09-30T21:41:08.291Z,11.03
2018-09-30T21:43:36.600Z,10.20
2018-09-30T21:46:04.825Z,12.30
2018-09-30T21:48:33.058Z,9.33
2018-09-30T21:51:01.285Z,12.30
2018-09-30T21:53:29.557Z,10.37
2018-09-30T21:55:57.656Z,11.80
2018-09-30T21:58:25.813Z,9.90
2018-09-30T22:00:58.152Z,10.53
2018-09-30T22:03:26.574Z,9.77
2018-09-30T22:05:54.666Z,12.50
2018-09-30T22:08:22.801Z,12.23
2018-09-30T22:10:51.084Z,11.00
2018-09-30T22:13:19.180Z,11.93
2018-09-30T22:15:47.345Z,10.70
2018-09-30T22:18:15.426Z,11.57
2018-09-30T22:20:43.580Z,10.43
2018-09-30T22:23:11.673Z,11.27
2018-09-30T22:25:39.729Z,9.50
2018-09-30T22:28:07.901Z,10.00
2018-09-30T22:30:35.988Z,10.10
2018-09-30T22:33:04.596Z,10.57
2018-09-30T22:35:32.835Z,9.67
2018-09-30T22:38:00.924Z,11.07
2018-09-30T22:40:29.259Z,9.23
2018-09-30T22:42:57.468Z,13.33
2018-09-30T22:45:25.565Z,9.40
2018-09-30T22:47:53.639Z,9.63
2018-09-30T22:50:21.773Z,9.30
2018-09-30T22:52:49.842Z,9.97
2018-09-30T22:55:18.139Z,9.70
2018-09-30T22:57:46.190Z,10.10
2018-09-30T23:00:14.628Z,12.53
2018-09-30T23:02:43.153Z,11.67
2018-09-30T23:05:11.344Z,10.97
2018-09-30T23:07:39.416Z,9.83
2018-09-30T23:10:08.511Z,10.03
2018-09-30T23:12:36.580Z,9.80
2018-09-30T23:15:04.764Z,10.27
2018-09-30T23:17:32.857Z,12.73
2018-09-30T23:20:01.319Z,10.37
2018-09-30T23:22:29.374Z,10.83
2018-09-30T23:24:57.571Z,9.53
2018-09-30T23:27:25.629Z,10.40
2018-09-30T23:29:53.736Z,10.03
2018-09-30T23:32:21.780Z,10.37
2018-09-30T23:34:49.859Z,10.10
2018-09-30T23:37:18.324Z,9.77
2018-09-30T23:39:46.402Z,9.43
2018-09-30T23:42:14.477Z,9.63
2018-09-30T23:44:42.556Z,9.73
2018-09-30T23:47:10.624Z,10.87
2018-09-30T23:49:38.708Z,10.57
2018-09-30T23:52:06.879Z,8.93
2018-09-30T23:54:35.162Z,11.50
2018-09-30T23:57:03.230Z,11.17
2018-09-30T23:59:31.397Z,13.23
